Sanski Most, Bosnia and Herzegovina
Current Conditions -  °F | °C
As of 10:00 PM on Sunday 25 Jan 2015 (Local Time) from LQBK Reporting Station
Light Snow Light Snow  
Wind Chill: 28°   Ceiling: 2800
Heat Index: 34°   Visibility: 6mi
Dew Point: 32°   Wind: 7mph
Humidity: 93%   Direction: 310°NW
Pressure: 30.15"   Gusts: NA
Location:  44.77°N, 16.67°E
Report Text: LQBK 252000Z 31006KT 9999 -SN SCT018 OVC028 01/M00 Q1021 TEMPO5000 SN BKN015OVC025
Loading
Personal Weather Stations






























Interactive Weather Map New forecast layout! Learn more

10-Day Weather Forecast

Advertisements
Track Severe Weather on mobile